LIMCDTTA

Guest
Details From LIMC - Milano Malpensa
To DTTA - CARTHAGE
Flight Number -
Tags generated
Created
Modified
Stats Distance 538 nm / 997 km
Max Altitude 35,000 ft / 10,668 m
Waypoints 13
Social Downloads 0
Likes 0
Share VATSIM

Download

Looking for another format? Having issues loading an existing format? Contact us
Advertisement - Login to hide

Notes

Basic altitude profile: - Ascent Rate: 2500ft/min - Ascent Speed: 250kts - Cruise Altitude: 35000ft - Cruise Speed: 420kts - Descent Rate: 1500ft/min - Descent Speed: 250kts

Route

LIMC UNITA UM858 AJO UM733 OSMAR DTTA

ID Type Via Altitude Latitude Longitude Leg Dist Tot Dist Heading (true) Name
O LIMC APT - 0 ft / 0 m 45.63061˚ 8.72811˚ - 0 nm - Milano Malpensa
UNITA FIX - 35,000 ft / 10,668 m 43.94444˚ 9.02500˚ 102 nm 102 nm 173° / 173° -
OLETI FIX UM858 (AWY-HI) 34,000 ft / 10,363 m 43.81000˚ 9.00861˚ 8 nm 110 nm 185° / 185° -
TORTU FIX UM858 (AWY-HI) 34,000 ft / 10,363 m 43.38833˚ 8.95833˚ 25 nm 135 nm 185° / 185° -
AKUTI FIX UM858 (AWY-HI) 34,000 ft / 10,363 m 43.22722˚ 8.94028˚ 9 nm 145 nm 185° / 185° -
SUDAS FIX UM858 (AWY-HI) 34,000 ft / 10,363 m 42.93806˚ 8.90639˚ 17 nm 162 nm 185° / 185° -
AJO VOR UM858 (AWY-HI) 34,000 ft / 10,363 m 41.77053˚ 8.77467˚ 70 nm 233 nm 185° / 185° AJACCIO VOR-DME
CORSI FIX UM733 (AWY-HI) 35,000 ft / 10,668 m 41.33333˚ 8.81222˚ 26 nm 259 nm 176° / 176° -
BOLOT FIX UM733 (AWY-HI) 35,000 ft / 10,668 m 40.35667˚ 8.89389˚ 58 nm 318 nm 176° / 176° -
CAR VOR UM733 (AWY-HI) 29,900 ft / 9,114 m 39.11139˚ 9.50806˚ 79 nm 398 nm 159° / 159° CARBONARA VOR-DME
PIRIX FIX UM733 (AWY-HI) 27,200 ft / 8,291 m 38.90139˚ 9.57833˚ 13 nm 411 nm 165° / 165° -
OSMAR FIX UM733 (AWY-HI) 19,500 ft / 5,944 m 38.25472˚ 9.78722˚ 40 nm 451 nm 166° / 166° -
O DTTA APT - 0 ft / 0 m 36.85127˚ 10.23003˚ 86 nm 538 nm 166° / 166° CARTHAGE

Altitude Profile

Advertisement - Login to hide

Weather


0- 5 10 15 20 25 30 35+ Temperature / ° C

Clouds and Precipitation
Forecast for 2017-12-14 06:00 UTC. Updated an hour ago

Ground ~20,000 ft ~40,000 ft Winds

LIMC

Details ICAO LIMC (MXP)
Name Milano Malpensa
Region Italy
Timezone Europe/Rome (UTC+1.0)
Stats Elevation 767 ft / 234 m (AMSL)
Location 45.630606° 8.728111°
Runways 2
Magnetic Variation 2.377° E

METAR

LIMC 140350Z 30004KT 9999 BKN040 03/M01 Q1010 NOSIG

Decode

TAF

TAF LIMC 132300Z 1400/1506 VRB05KT 9999 BKN030 TEMPO 1400/1408 3000 BCFG

Decode

Departure Runways

ID Width Length Bearing (true) Bearing (mag) Surface Threshold Offset Overrun Length
17L 197 ft / 60 m 12,869 ft / 3,923 m 169.62° 167.24° Asphalt 3,094 ft / 943 m 0 ft / 0 m
17R 197 ft / 60 m 12,869 ft / 3,923 m 169.62° 167.24° Asphalt 0 ft / 0 m 0 ft / 0 m
35L 197 ft / 60 m 12,869 ft / 3,923 m 349.62° 347.24° Asphalt 1,329 ft / 405 m 0 ft / 0 m
35R 197 ft / 60 m 12,869 ft / 3,923 m 349.62° 347.24° Asphalt 0 ft / 0 m 0 ft / 0 m

DTTA

Details ICAO DTTA (TUN)
Name CARTHAGE
Region Tunisia
Timezone Africa/Tunis (UTC+1.0)
Stats Elevation 22 ft / 7 m (AMSL)
Location 36.851267° 10.230027°
Runways 2
Magnetic Variation 2.403° E

METAR

DTTA 140400Z 21006KT 9999 SCT023 10/06 Q1023 NOSIG

Decode

TAF

TAF DTTA 132300Z 1400/1424 22012KT 9999 SCT023= TAF DTTJ 132300Z 1400/1424 18010KT CAVOK BECMG 1418/1420 23015KT

Decode

Destination Runways

ID Width Length Bearing (true) Bearing (mag) Surface Threshold Offset Overrun Length
01 148 ft / 45 m 10,502 ft / 3,201 m 12.29° 9.89° Asphalt 0 ft / 0 m 197 ft / 60 m
11 148 ft / 45 m 9,345 ft / 2,848 m 112.55° 110.15° Asphalt 0 ft / 0 m 643 ft / 196 m
19 148 ft / 45 m 10,502 ft / 3,201 m 192.29° 189.89° Asphalt 0 ft / 0 m 197 ft / 60 m
29 148 ft / 45 m 9,345 ft / 2,848 m 292.57° 290.17° Asphalt 657 ft / 200 m 197 ft / 60 m

Approach Navaids

Runway Type Ident Frequency Range Bearing (true) Bearing (mag) Slope Elevation
01 Glidescope TBL 111.10 MHz 10 nm / 19 km 10.00° 7.60° 3.00° 22 ft / 7 m (AMSL)
01 DME TBL 111.10 MHz 18 nm / 33 km - - - 22 ft / 7 m (AMSL)
19 Localiser TSI 110.30 MHz 18 nm / 33 km 192.29° 189.89° - 13 ft / 4 m (AMSL)
19 Glidescope TSI 110.30 MHz 10 nm / 19 km 192.29° 189.89° 3.00° 22 ft / 7 m (AMSL)
29 Localiser TKE 108.50 MHz 18 nm / 33 km 292.54° 290.14° - 22 ft / 7 m (AMSL)
29 Glidescope TKE 108.50 MHz 10 nm / 19 km 292.56° 290.15° 3.00° 22 ft / 7 m (AMSL)
29 DME TKE 108.50 MHz 18 nm / 33 km - - - 22 ft / 7 m (AMSL)

Popular Alternatives